sensor_id;sensor_type;location;lat;lon;timestamp;P1;durP1;ratioP1;P2;durP2;ratioP2
5297;SDS011;14738;42.668;23.250;2023-07-31T00:01:25;6.00;;;5.37;;
5297;SDS011;14738;42.668;23.250;2023-07-31T00:03:51;5.40;;;5.00;;
5297;SDS011;14738;42.668;23.250;2023-07-31T00:06:16;5.17;;;4.87;;
5297;SDS011;14738;42.668;23.250;2023-07-31T00:08:42;5.73;;;5.33;;
5297;SDS011;14738;42.668;23.250;2023-07-31T00:11:07;5.73;;;5.40;;
5297;SDS011;14738;42.668;23.250;2023-07-31T00:13:32;5.33;;;5.03;;
5297;SDS011;14738;42.668;23.250;2023-07-31T00:15:58;5.87;;;5.47;;
5297;SDS011;14738;42.668;23.250;2023-07-31T00:18:24;5.43;;;4.93;;
5297;SDS011;14738;42.668;23.250;2023-07-31T00:20:49;5.73;;;5.33;;
5297;SDS011;14738;42.668;23.250;2023-07-31T00:23:15;7.07;;;6.60;;
5297;SDS011;14738;42.668;23.250;2023-07-31T00:25:41;6.50;;;5.90;;
5297;SDS011;14738;42.668;23.250;2023-07-31T00:28:07;7.00;;;6.50;;
5297;SDS011;14738;42.668;23.250;2023-07-31T00:30:32;7.10;;;6.50;;
5297;SDS011;14738;42.668;23.250;2023-07-31T00:32:58;6.53;;;6.00;;
5297;SDS011;14738;42.668;23.250;2023-07-31T00:35:23;7.73;;;7.13;;
5297;SDS011;14738;42.668;23.250;2023-07-31T00:37:48;7.10;;;6.60;;
5297;SDS011;14738;42.668;23.250;2023-07-31T00:40:14;7.53;;;7.03;;
5297;SDS011;14738;42.668;23.250;2023-07-31T00:42:39;7.50;;;6.90;;
5297;SDS011;14738;42.668;23.250;2023-07-31T00:45:05;8.23;;;7.63;;
5297;SDS011;14738;42.668;23.250;2023-07-31T00:47:30;8.30;;;7.70;;
5297;SDS011;14738;42.668;23.250;2023-07-31T00:49:56;8.67;;;7.97;;
5297;SDS011;14738;42.668;23.250;2023-07-31T00:52:22;9.77;;;8.77;;
5297;SDS011;14738;42.668;23.250;2023-07-31T00:54:48;10.00;;;9.20;;
5297;SDS011;14738;42.668;23.250;2023-07-31T00:57:14;9.93;;;9.03;;
5297;SDS011;14738;42.668;23.250;2023-07-31T00:59:40;10.90;;;10.00;;
5297;SDS011;14738;42.668;23.250;2023-07-31T01:02:05;11.27;;;10.40;;
5297;SDS011;14738;42.668;23.250;2023-07-31T01:04:31;11.93;;;10.97;;
5297;SDS011;14738;42.668;23.250;2023-07-31T01:07:11;13.20;;;11.90;;
5297;SDS011;14738;42.668;23.250;2023-07-31T01:09:57;12.43;;;11.33;;
5297;SDS011;14738;42.668;23.250;2023-07-31T01:12:24;14.80;;;13.40;;
5297;SDS011;14738;42.668;23.250;2023-07-31T01:15:05;17.40;;;15.70;;
5297;SDS011;14738;42.668;23.250;2023-07-31T01:17:31;16.93;;;15.30;;
5297;SDS011;14738;42.668;23.250;2023-07-31T01:19:59;17.27;;;15.70;;
5297;SDS011;14738;42.668;23.250;2023-07-31T01:22:31;18.13;;;16.40;;
5297;SDS011;14738;42.668;23.250;2023-07-31T01:30:31;23.17;;;20.77;;
5297;SDS011;14738;42.668;23.250;2023-07-31T01:33:02;23.73;;;21.43;;
5297;SDS011;14738;42.668;23.250;2023-07-31T01:35:35;25.40;;;22.90;;
5297;SDS011;14738;42.668;23.250;2023-07-31T01:38:02;25.67;;;23.07;;
5297;SDS011;14738;42.668;23.250;2023-07-31T01:40:27;28.50;;;25.80;;
5297;SDS011;14738;42.668;23.250;2023-07-31T01:42:53;27.10;;;24.50;;
5297;SDS011;14738;42.668;23.250;2023-07-31T01:45:18;26.67;;;24.13;;
5297;SDS011;14738;42.668;23.250;2023-07-31T01:47:44;29.63;;;26.67;;
5297;SDS011;14738;42.668;23.250;2023-07-31T01:50:09;29.00;;;26.10;;
5297;SDS011;14738;42.668;23.250;2023-07-31T01:52:35;29.70;;;26.80;;
5297;SDS011;14738;42.668;23.250;2023-07-31T01:55:00;31.33;;;28.20;;
5297;SDS011;14738;42.668;23.250;2023-07-31T01:57:26;28.63;;;25.63;;
5297;SDS011;14738;42.668;23.250;2023-07-31T01:59:51;29.67;;;26.63;;
5297;SDS011;14738;42.668;23.250;2023-07-31T02:02:18;30.53;;;27.63;;
5297;SDS011;14738;42.668;23.250;2023-07-31T02:04:44;29.83;;;26.80;;
5297;SDS011;14738;42.668;23.250;2023-07-31T02:07:09;30.50;;;27.37;;
5297;SDS011;14738;42.668;23.250;2023-07-31T02:09:35;30.50;;;27.60;;
5297;SDS011;14738;42.668;23.250;2023-07-31T02:12:00;28.17;;;25.60;;
5297;SDS011;14738;42.668;23.250;2023-07-31T02:14:26;28.73;;;25.83;;
5297;SDS011;14738;42.668;23.250;2023-07-31T02:16:51;29.07;;;26.30;;
5297;SDS011;14738;42.668;23.250;2023-07-31T02:19:16;28.53;;;25.80;;
5297;SDS011;14738;42.668;23.250;2023-07-31T02:21:42;28.50;;;25.70;;
5297;SDS011;14738;42.668;23.250;2023-07-31T02:24:07;28.40;;;25.50;;
5297;SDS011;14738;42.668;23.250;2023-07-31T02:26:33;28.23;;;25.50;;
5297;SDS011;14738;42.668;23.250;2023-07-31T02:28:58;26.07;;;23.57;;
5297;SDS011;14738;42.668;23.250;2023-07-31T02:31:23;28.30;;;25.60;;
5297;SDS011;14738;42.668;23.250;2023-07-31T02:33:49;27.97;;;25.03;;
5297;SDS011;14738;42.668;23.250;2023-07-31T02:36:14;27.40;;;24.87;;
5297;SDS011;14738;42.668;23.250;2023-07-31T02:38:40;28.03;;;25.07;;
5297;SDS011;14738;42.668;23.250;2023-07-31T02:41:05;27.20;;;24.50;;
5297;SDS011;14738;42.668;23.250;2023-07-31T02:43:31;29.13;;;26.13;;
5297;SDS011;14738;42.668;23.250;2023-07-31T02:45:56;29.43;;;26.73;;
5297;SDS011;14738;42.668;23.250;2023-07-31T02:48:22;27.47;;;24.80;;
5297;SDS011;14738;42.668;23.250;2023-07-31T02:50:47;28.07;;;25.30;;
5297;SDS011;14738;42.668;23.250;2023-07-31T02:53:13;28.57;;;25.80;;
5297;SDS011;14738;42.668;23.250;2023-07-31T02:55:38;28.93;;;26.07;;
5297;SDS011;14738;42.668;23.250;2023-07-31T02:58:04;28.47;;;25.60;;
5297;SDS011;14738;42.668;23.250;2023-07-31T03:00:29;28.27;;;25.57;;
5297;SDS011;14738;42.668;23.250;2023-07-31T03:02:55;29.53;;;26.67;;
5297;SDS011;14738;42.668;23.250;2023-07-31T03:05:20;28.23;;;25.40;;
5297;SDS011;14738;42.668;23.250;2023-07-31T03:07:46;30.87;;;27.77;;
5297;SDS011;14738;42.668;23.250;2023-07-31T03:10:11;27.47;;;24.77;;
5297;SDS011;14738;42.668;23.250;2023-07-31T03:12:37;30.40;;;27.30;;
5297;SDS011;14738;42.668;23.250;2023-07-31T03:15:02;28.50;;;25.80;;
5297;SDS011;14738;42.668;23.250;2023-07-31T03:17:28;27.80;;;25.10;;
5297;SDS011;14738;42.668;23.250;2023-07-31T03:19:53;29.40;;;26.50;;
5297;SDS011;14738;42.668;23.250;2023-07-31T03:22:19;30.70;;;27.67;;
5297;SDS011;14738;42.668;23.250;2023-07-31T03:24:44;28.87;;;25.97;;
5297;SDS011;14738;42.668;23.250;2023-07-31T03:27:09;29.07;;;26.17;;
5297;SDS011;14738;42.668;23.250;2023-07-31T03:29:35;28.43;;;25.73;;
5297;SDS011;14738;42.668;23.250;2023-07-31T03:32:00;28.87;;;26.07;;
5297;SDS011;14738;42.668;23.250;2023-07-31T03:34:26;30.60;;;27.30;;
5297;SDS011;14738;42.668;23.250;2023-07-31T03:36:51;29.83;;;26.70;;
5297;SDS011;14738;42.668;23.250;2023-07-31T03:39:17;28.63;;;25.73;;
5297;SDS011;14738;42.668;23.250;2023-07-31T03:41:42;29.57;;;26.63;;
5297;SDS011;14738;42.668;23.250;2023-07-31T03:44:08;28.60;;;25.80;;
5297;SDS011;14738;42.668;23.250;2023-07-31T03:46:33;30.33;;;27.00;;
5297;SDS011;14738;42.668;23.250;2023-07-31T03:48:59;30.73;;;27.33;;
5297;SDS011;14738;42.668;23.250;2023-07-31T03:51:25;30.60;;;27.33;;
5297;SDS011;14738;42.668;23.250;2023-07-31T03:53:50;30.37;;;27.07;;
5297;SDS011;14738;42.668;23.250;2023-07-31T03:56:15;30.00;;;25.70;;
5297;SDS011;14738;42.668;23.250;2023-07-31T03:58:41;31.97;;;26.93;;
5297;SDS011;14738;42.668;23.250;2023-07-31T04:01:06;29.27;;;26.10;;
5297;SDS011;14738;42.668;23.250;2023-07-31T04:03:32;29.17;;;26.17;;
5297;SDS011;14738;42.668;23.250;2023-07-31T04:05:57;30.77;;;27.47;;
5297;SDS011;14738;42.668;23.250;2023-07-31T04:08:23;29.10;;;25.50;;
5297;SDS011;14738;42.668;23.250;2023-07-31T04:10:48;30.57;;;27.47;;
5297;SDS011;14738;42.668;23.250;2023-07-31T04:13:14;30.60;;;27.60;;
5297;SDS011;14738;42.668;23.250;2023-07-31T04:15:40;30.63;;;27.40;;
5297;SDS011;14738;42.668;23.250;2023-07-31T04:18:06;30.60;;;27.27;;
5297;SDS011;14738;42.668;23.250;2023-07-31T04:20:31;30.90;;;27.60;;
5297;SDS011;14738;42.668;23.250;2023-07-31T04:22:57;29.87;;;26.67;;
5297;SDS011;14738;42.668;23.250;2023-07-31T04:25:22;28.97;;;25.83;;
5297;SDS011;14738;42.668;23.250;2023-07-31T04:27:48;30.33;;;27.23;;
5297;SDS011;14738;42.668;23.250;2023-07-31T04:30:13;28.57;;;25.70;;
5297;SDS011;14738;42.668;23.250;2023-07-31T04:32:39;28.47;;;25.47;;
5297;SDS011;14738;42.668;23.250;2023-07-31T04:35:04;29.33;;;25.43;;
5297;SDS011;14738;42.668;23.250;2023-07-31T04:37:30;27.20;;;24.50;;
5297;SDS011;14738;42.668;23.250;2023-07-31T04:39:56;26.80;;;24.10;;
5297;SDS011;14738;42.668;23.250;2023-07-31T04:42:21;29.03;;;25.57;;
5297;SDS011;14738;42.668;23.250;2023-07-31T04:44:47;27.30;;;24.50;;
5297;SDS011;14738;42.668;23.250;2023-07-31T04:47:12;29.70;;;24.57;;
5297;SDS011;14738;42.668;23.250;2023-07-31T04:49:38;25.87;;;23.27;;
5297;SDS011;14738;42.668;23.250;2023-07-31T04:52:03;26.03;;;22.63;;
5297;SDS011;14738;42.668;23.250;2023-07-31T04:54:29;23.70;;;20.90;;
5297;SDS011;14738;42.668;23.250;2023-07-31T04:56:54;24.37;;;21.10;;
5297;SDS011;14738;42.668;23.250;2023-07-31T04:59:20;24.33;;;21.87;;
5297;SDS011;14738;42.668;23.250;2023-07-31T05:01:45;18.77;;;17.07;;
5297;SDS011;14738;42.668;23.250;2023-07-31T05:04:14;19.30;;;17.60;;
5297;SDS011;14738;42.668;23.250;2023-07-31T05:06:40;18.83;;;17.30;;
5297;SDS011;14738;42.668;23.250;2023-07-31T05:09:07;18.67;;;17.07;;
5297;SDS011;14738;42.668;23.250;2023-07-31T05:11:34;20.83;;;19.03;;
5297;SDS011;14738;42.668;23.250;2023-07-31T05:14:00;19.57;;;17.97;;
5297;SDS011;14738;42.668;23.250;2023-07-31T05:16:25;18.70;;;17.10;;
5297;SDS011;14738;42.668;23.250;2023-07-31T05:18:51;19.83;;;18.00;;
5297;SDS011;14738;42.668;23.250;2023-07-31T05:21:16;18.10;;;16.50;;
5297;SDS011;14738;42.668;23.250;2023-07-31T05:23:41;18.33;;;16.63;;
5297;SDS011;14738;42.668;23.250;2023-07-31T05:26:07;19.70;;;18.00;;
5297;SDS011;14738;42.668;23.250;2023-07-31T05:28:35;20.57;;;18.87;;
5297;SDS011;14738;42.668;23.250;2023-07-31T05:31:01;19.53;;;17.80;;
5297;SDS011;14738;42.668;23.250;2023-07-31T05:33:27;17.47;;;15.67;;
5297;SDS011;14738;42.668;23.250;2023-07-31T05:35:53;15.27;;;14.00;;
5297;SDS011;14738;42.668;23.250;2023-07-31T05:38:19;14.03;;;12.73;;
5297;SDS011;14738;42.668;23.250;2023-07-31T05:40:44;12.67;;;11.50;;
5297;SDS011;14738;42.668;23.250;2023-07-31T05:43:09;11.73;;;10.83;;
5297;SDS011;14738;42.668;23.250;2023-07-31T05:45:35;12.60;;;11.60;;
5297;SDS011;14738;42.668;23.250;2023-07-31T05:48:01;11.23;;;10.20;;
5297;SDS011;14738;42.668;23.250;2023-07-31T05:50:27;10.10;;;9.20;;
5297;SDS011;14738;42.668;23.250;2023-07-31T05:52:53;10.80;;;9.23;;
5297;SDS011;14738;42.668;23.250;2023-07-31T05:55:18;10.23;;;9.00;;
5297;SDS011;14738;42.668;23.250;2023-07-31T05:57:44;10.00;;;8.90;;
5297;SDS011;14738;42.668;23.250;2023-07-31T06:00:11;9.00;;;8.30;;
5297;SDS011;14738;42.668;23.250;2023-07-31T06:02:37;9.07;;;8.40;;
5297;SDS011;14738;42.668;23.250;2023-07-31T06:05:03;8.17;;;7.57;;
5297;SDS011;14738;42.668;23.250;2023-07-31T06:07:31;8.00;;;7.40;;
5297;SDS011;14738;42.668;23.250;2023-07-31T06:09:56;8.07;;;7.57;;
5297;SDS011;14738;42.668;23.250;2023-07-31T06:12:28;6.93;;;6.43;;
5297;SDS011;14738;42.668;23.250;2023-07-31T06:14:53;7.77;;;7.07;;
5297;SDS011;14738;42.668;23.250;2023-07-31T06:17:19;6.67;;;6.03;;
5297;SDS011;14738;42.668;23.250;2023-07-31T06:19:44;8.63;;;7.93;;
5297;SDS011;14738;42.668;23.250;2023-07-31T06:22:10;6.57;;;6.00;;
5297;SDS011;14738;42.668;23.250;2023-07-31T06:24:35;12.47;;;5.53;;
5297;SDS011;14738;42.668;23.250;2023-07-31T06:27:01;6.00;;;5.60;;
5297;SDS011;14738;42.668;23.250;2023-07-31T06:29:29;6.10;;;5.70;;
5297;SDS011;14738;42.668;23.250;2023-07-31T06:31:55;7.07;;;6.53;;
5297;SDS011;14738;42.668;23.250;2023-07-31T06:34:20;7.20;;;6.20;;
5297;SDS011;14738;42.668;23.250;2023-07-31T06:36:46;7.20;;;6.70;;
5297;SDS011;14738;42.668;23.250;2023-07-31T06:39:12;5.50;;;5.20;;
5297;SDS011;14738;42.668;23.250;2023-07-31T06:41:38;8.00;;;7.20;;
5297;SDS011;14738;42.668;23.250;2023-07-31T06:44:04;5.87;;;5.47;;
5297;SDS011;14738;42.668;23.250;2023-07-31T06:46:29;5.70;;;5.40;;
5297;SDS011;14738;42.668;23.250;2023-07-31T06:48:55;6.17;;;5.77;;
5297;SDS011;14738;42.668;23.250;2023-07-31T06:51:20;7.57;;;4.87;;
5297;SDS011;14738;42.668;23.250;2023-07-31T06:53:46;5.33;;;4.93;;
5297;SDS011;14738;42.668;23.250;2023-07-31T06:56:11;4.60;;;4.20;;
5297;SDS011;14738;42.668;23.250;2023-07-31T06:58:37;6.97;;;6.10;;
5297;SDS011;14738;42.668;23.250;2023-07-31T07:01:03;31.87;;;6.20;;
5297;SDS011;14738;42.668;23.250;2023-07-31T07:03:28;4.30;;;4.10;;
5297;SDS011;14738;42.668;23.250;2023-07-31T07:05:54;3.80;;;3.60;;
5297;SDS011;14738;42.668;23.250;2023-07-31T07:08:19;4.93;;;3.83;;
5297;SDS011;14738;42.668;23.250;2023-07-31T07:10:45;4.10;;;3.90;;
5297;SDS011;14738;42.668;23.250;2023-07-31T07:13:10;3.97;;;3.57;;
5297;SDS011;14738;42.668;23.250;2023-07-31T07:15:37;4.97;;;3.40;;
5297;SDS011;14738;42.668;23.250;2023-07-31T07:18:03;5.93;;;5.00;;
5297;SDS011;14738;42.668;23.250;2023-07-31T07:20:28;4.00;;;3.70;;
5297;SDS011;14738;42.668;23.250;2023-07-31T07:22:54;3.60;;;3.40;;
5297;SDS011;14738;42.668;23.250;2023-07-31T07:25:19;3.80;;;3.60;;
5297;SDS011;14738;42.668;23.250;2023-07-31T07:27:45;3.83;;;3.53;;
5297;SDS011;14738;42.668;23.250;2023-07-31T07:30:10;3.97;;;3.77;;
5297;SDS011;14738;42.668;23.250;2023-07-31T07:32:36;3.40;;;3.20;;
5297;SDS011;14738;42.668;23.250;2023-07-31T07:35:01;3.73;;;3.43;;
5297;SDS011;14738;42.668;23.250;2023-07-31T07:37:26;3.60;;;3.40;;
5297;SDS011;14738;42.668;23.250;2023-07-31T07:39:54;4.53;;;3.80;;
5297;SDS011;14738;42.668;23.250;2023-07-31T07:42:19;4.80;;;4.50;;
5297;SDS011;14738;42.668;23.250;2023-07-31T07:44:47;6.70;;;4.17;;
5297;SDS011;14738;42.668;23.250;2023-07-31T07:47:13;3.70;;;3.50;;
5297;SDS011;14738;42.668;23.250;2023-07-31T07:49:38;3.80;;;3.60;;
5297;SDS011;14738;42.668;23.250;2023-07-31T07:52:04;4.30;;;3.90;;
5297;SDS011;14738;42.668;23.250;2023-07-31T07:54:30;4.00;;;3.70;;
5297;SDS011;14738;42.668;23.250;2023-07-31T07:56:56;4.00;;;3.80;;
5297;SDS011;14738;42.668;23.250;2023-07-31T07:59:21;5.07;;;4.67;;
5297;SDS011;14738;42.668;23.250;2023-07-31T08:01:47;3.67;;;3.47;;
5297;SDS011;14738;42.668;23.250;2023-07-31T08:04:12;3.40;;;3.20;;
5297;SDS011;14738;42.668;23.250;2023-07-31T08:06:38;3.20;;;3.00;;
5297;SDS011;14738;42.668;23.250;2023-07-31T08:09:03;4.47;;;4.17;;
5297;SDS011;14738;42.668;23.250;2023-07-31T08:11:31;4.50;;;4.10;;
5297;SDS011;14738;42.668;23.250;2023-07-31T08:14:00;4.90;;;4.47;;
5297;SDS011;14738;42.668;23.250;2023-07-31T08:16:26;3.90;;;3.70;;
5297;SDS011;14738;42.668;23.250;2023-07-31T08:18:51;4.50;;;3.90;;
5297;SDS011;14738;42.668;23.250;2023-07-31T08:21:17;3.50;;;3.30;;
5297;SDS011;14738;42.668;23.250;2023-07-31T08:23:42;3.70;;;3.40;;
5297;SDS011;14738;42.668;23.250;2023-07-31T08:26:07;3.60;;;3.40;;
5297;SDS011;14738;42.668;23.250;2023-07-31T08:28:33;6.30;;;4.97;;
5297;SDS011;14738;42.668;23.250;2023-07-31T08:31:00;4.20;;;3.90;;
5297;SDS011;14738;42.668;23.250;2023-07-31T08:33:25;4.10;;;3.80;;
5297;SDS011;14738;42.668;23.250;2023-07-31T08:35:50;4.80;;;4.40;;
5297;SDS011;14738;42.668;23.250;2023-07-31T08:38:16;4.23;;;3.37;;
5297;SDS011;14738;42.668;23.250;2023-07-31T08:40:41;4.20;;;3.90;;
5297;SDS011;14738;42.668;23.250;2023-07-31T08:43:07;3.90;;;3.60;;
5297;SDS011;14738;42.668;23.250;2023-07-31T08:45:33;3.83;;;3.63;;
5297;SDS011;14738;42.668;23.250;2023-07-31T08:47:59;6.07;;;5.67;;
5297;SDS011;14738;42.668;23.250;2023-07-31T08:50:25;4.20;;;4.00;;
5297;SDS011;14738;42.668;23.250;2023-07-31T08:52:51;6.13;;;3.87;;
5297;SDS011;14738;42.668;23.250;2023-07-31T08:55:17;3.60;;;3.40;;
5297;SDS011;14738;42.668;23.250;2023-07-31T08:57:48;3.70;;;3.50;;
5297;SDS011;14738;42.668;23.250;2023-07-31T09:00:16;4.20;;;3.90;;
5297;SDS011;14738;42.668;23.250;2023-07-31T09:03:03;4.07;;;3.77;;
5297;SDS011;14738;42.668;23.250;2023-07-31T09:05:29;3.90;;;3.63;;
5297;SDS011;14738;42.668;23.250;2023-07-31T09:07:56;3.77;;;3.57;;
5297;SDS011;14738;42.668;23.250;2023-07-31T09:10:22;4.10;;;3.80;;
5297;SDS011;14738;42.668;23.250;2023-07-31T09:12:48;3.87;;;3.57;;
5297;SDS011;14738;42.668;23.250;2023-07-31T09:15:16;3.80;;;3.50;;
5297;SDS011;14738;42.668;23.250;2023-07-31T09:17:42;4.07;;;3.87;;
5297;SDS011;14738;42.668;23.250;2023-07-31T09:20:20;3.93;;;3.70;;
5297;SDS011;14738;42.668;23.250;2023-07-31T09:22:46;4.47;;;4.17;;
5297;SDS011;14738;42.668;23.250;2023-07-31T09:25:20;4.50;;;4.20;;
5297;SDS011;14738;42.668;23.250;2023-07-31T09:30:22;6.83;;;3.77;;
5297;SDS011;14738;42.668;23.250;2023-07-31T09:32:49;3.90;;;3.60;;
5297;SDS011;14738;42.668;23.250;2023-07-31T09:37:51;3.70;;;3.43;;
5297;SDS011;14738;42.668;23.250;2023-07-31T09:40:31;4.60;;;4.07;;
5297;SDS011;14738;42.668;23.250;2023-07-31T09:42:59;4.27;;;4.03;;
5297;SDS011;14738;42.668;23.250;2023-07-31T09:45:26;4.23;;;3.90;;
5297;SDS011;14738;42.668;23.250;2023-07-31T09:47:52;4.10;;;3.80;;
5297;SDS011;14738;42.668;23.250;2023-07-31T09:50:22;4.13;;;3.67;;
5297;SDS011;14738;42.668;23.250;2023-07-31T09:52:50;3.47;;;3.30;;
5297;SDS011;14738;42.668;23.250;2023-07-31T09:55:16;3.30;;;3.10;;
5297;SDS011;14738;42.668;23.250;2023-07-31T09:57:46;4.27;;;3.33;;
5297;SDS011;14738;42.668;23.250;2023-07-31T10:00:13;3.07;;;2.97;;
5297;SDS011;14738;42.668;23.250;2023-07-31T10:02:40;4.70;;;3.23;;
5297;SDS011;14738;42.668;23.250;2023-07-31T10:05:06;3.23;;;3.10;;
5297;SDS011;14738;42.668;23.250;2023-07-31T10:07:38;3.43;;;3.23;;
5297;SDS011;14738;42.668;23.250;2023-07-31T10:10:07;3.37;;;2.80;;
5297;SDS011;14738;42.668;23.250;2023-07-31T10:12:34;3.40;;;3.20;;
5297;SDS011;14738;42.668;23.250;2023-07-31T10:15:01;4.53;;;3.30;;
5297;SDS011;14738;42.668;23.250;2023-07-31T10:17:27;3.07;;;2.80;;
5297;SDS011;14738;42.668;23.250;2023-07-31T10:19:54;3.00;;;2.80;;
5297;SDS011;14738;42.668;23.250;2023-07-31T10:22:23;3.10;;;2.90;;
5297;SDS011;14738;42.668;23.250;2023-07-31T10:24:49;3.40;;;3.20;;
5297;SDS011;14738;42.668;23.250;2023-07-31T10:27:17;3.00;;;2.80;;
5297;SDS011;14738;42.668;23.250;2023-07-31T10:29:43;2.63;;;2.53;;
5297;SDS011;14738;42.668;23.250;2023-07-31T10:32:12;3.40;;;3.20;;
5297;SDS011;14738;42.668;23.250;2023-07-31T10:34:39;3.57;;;3.27;;
5297;SDS011;14738;42.668;23.250;2023-07-31T10:37:40;3.10;;;2.93;;
5297;SDS011;14738;42.668;23.250;2023-07-31T10:40:18;3.00;;;2.80;;
5297;SDS011;14738;42.668;23.250;2023-07-31T10:42:52;2.77;;;2.67;;
5297;SDS011;14738;42.668;23.250;2023-07-31T10:48:00;2.70;;;2.50;;
5297;SDS011;14738;42.668;23.250;2023-07-31T10:50:27;2.93;;;2.73;;
5297;SDS011;14738;42.668;23.250;2023-07-31T10:52:55;3.10;;;2.90;;
5297;SDS011;14738;42.668;23.250;2023-07-31T10:55:25;3.87;;;2.60;;
5297;SDS011;14738;42.668;23.250;2023-07-31T10:57:51;2.50;;;2.40;;
5297;SDS011;14738;42.668;23.250;2023-07-31T11:03:13;2.70;;;2.60;;
5297;SDS011;14738;42.668;23.250;2023-07-31T11:05:44;2.83;;;2.73;;
5297;SDS011;14738;42.668;23.250;2023-07-31T11:08:12;2.80;;;2.70;;
5297;SDS011;14738;42.668;23.250;2023-07-31T11:10:38;2.40;;;2.30;;
5297;SDS011;14738;42.668;23.250;2023-07-31T11:13:06;2.90;;;2.70;;
5297;SDS011;14738;42.668;23.250;2023-07-31T11:15:31;2.67;;;2.57;;
5297;SDS011;14738;42.668;23.250;2023-07-31T11:17:57;2.90;;;2.60;;
5297;SDS011;14738;42.668;23.250;2023-07-31T11:20:25;4.90;;;2.70;;
5297;SDS011;14738;42.668;23.250;2023-07-31T11:22:50;2.50;;;2.40;;
5297;SDS011;14738;42.668;23.250;2023-07-31T11:25:16;3.33;;;2.80;;
5297;SDS011;14738;42.668;23.250;2023-07-31T11:27:43;2.60;;;2.50;;
5297;SDS011;14738;42.668;23.250;2023-07-31T11:30:09;2.50;;;2.40;;
5297;SDS011;14738;42.668;23.250;2023-07-31T11:32:38;3.20;;;3.00;;
5297;SDS011;14738;42.668;23.250;2023-07-31T11:35:03;2.77;;;2.67;;
5297;SDS011;14738;42.668;23.250;2023-07-31T11:37:43;3.60;;;3.40;;
5297;SDS011;14738;42.668;23.250;2023-07-31T11:40:09;4.03;;;3.73;;
5297;SDS011;14738;42.668;23.250;2023-07-31T11:42:36;4.10;;;3.20;;
5297;SDS011;14738;42.668;23.250;2023-07-31T11:45:05;3.97;;;3.63;;
5297;SDS011;14738;42.668;23.250;2023-07-31T11:47:34;3.63;;;3.37;;
5297;SDS011;14738;42.668;23.250;2023-07-31T11:50:01;3.53;;;3.33;;
5297;SDS011;14738;42.668;23.250;2023-07-31T11:52:29;6.00;;;3.33;;
5297;SDS011;14738;42.668;23.250;2023-07-31T11:54:59;3.53;;;3.33;;
5297;SDS011;14738;42.668;23.250;2023-07-31T11:57:25;4.07;;;3.63;;
5297;SDS011;14738;42.668;23.250;2023-07-31T11:59:52;4.20;;;3.90;;
5297;SDS011;14738;42.668;23.250;2023-07-31T12:02:18;4.60;;;4.30;;
5297;SDS011;14738;42.668;23.250;2023-07-31T12:04:43;4.57;;;4.27;;
5297;SDS011;14738;42.668;23.250;2023-07-31T12:07:11;4.37;;;4.07;;
5297;SDS011;14738;42.668;23.250;2023-07-31T12:09:37;6.60;;;5.30;;
5297;SDS011;14738;42.668;23.250;2023-07-31T12:12:19;5.50;;;5.10;;
5297;SDS011;14738;42.668;23.250;2023-07-31T12:14:45;5.67;;;5.30;;
5297;SDS011;14738;42.668;23.250;2023-07-31T12:17:10;5.67;;;5.27;;
5297;SDS011;14738;42.668;23.250;2023-07-31T12:19:36;7.03;;;6.43;;
5297;SDS011;14738;42.668;23.250;2023-07-31T12:22:10;6.87;;;6.23;;
5297;SDS011;14738;42.668;23.250;2023-07-31T12:24:36;7.20;;;6.70;;
5297;SDS011;14738;42.668;23.250;2023-07-31T12:29:36;6.03;;;5.63;;
5297;SDS011;14738;42.668;23.250;2023-07-31T12:32:04;6.03;;;5.63;;
5297;SDS011;14738;42.668;23.250;2023-07-31T12:34:42;7.33;;;6.73;;
5297;SDS011;14738;42.668;23.250;2023-07-31T12:37:08;7.60;;;6.90;;
5297;SDS011;14738;42.668;23.250;2023-07-31T12:39:34;6.33;;;5.93;;
5297;SDS011;14738;42.668;23.250;2023-07-31T12:41:59;6.60;;;6.00;;
5297;SDS011;14738;42.668;23.250;2023-07-31T12:44:25;6.73;;;6.23;;
5297;SDS011;14738;42.668;23.250;2023-07-31T12:46:50;6.90;;;6.37;;
5297;SDS011;14738;42.668;23.250;2023-07-31T12:49:15;7.30;;;6.70;;
5297;SDS011;14738;42.668;23.250;2023-07-31T12:51:41;8.07;;;7.30;;
5297;SDS011;14738;42.668;23.250;2023-07-31T12:54:06;9.23;;;8.33;;
5297;SDS011;14738;42.668;23.250;2023-07-31T12:56:32;7.90;;;7.40;;
5297;SDS011;14738;42.668;23.250;2023-07-31T12:58:57;7.90;;;7.20;;
5297;SDS011;14738;42.668;23.250;2023-07-31T13:01:23;7.53;;;6.93;;
5297;SDS011;14738;42.668;23.250;2023-07-31T13:03:48;7.13;;;6.63;;
5297;SDS011;14738;42.668;23.250;2023-07-31T13:06:13;8.07;;;7.40;;
5297;SDS011;14738;42.668;23.250;2023-07-31T13:08:39;7.20;;;6.80;;
5297;SDS011;14738;42.668;23.250;2023-07-31T13:11:04;6.90;;;6.40;;
5297;SDS011;14738;42.668;23.250;2023-07-31T13:13:30;8.33;;;7.30;;
5297;SDS011;14738;42.668;23.250;2023-07-31T13:15:56;7.30;;;6.80;;
5297;SDS011;14738;42.668;23.250;2023-07-31T13:18:21;25.23;;;7.20;;
5297;SDS011;14738;42.668;23.250;2023-07-31T13:20:47;7.13;;;6.60;;
5297;SDS011;14738;42.668;23.250;2023-07-31T13:23:12;6.97;;;6.37;;
5297;SDS011;14738;42.668;23.250;2023-07-31T13:25:38;8.10;;;6.27;;
5297;SDS011;14738;42.668;23.250;2023-07-31T13:28:03;5.80;;;5.40;;
5297;SDS011;14738;42.668;23.250;2023-07-31T13:30:29;5.60;;;5.20;;
5297;SDS011;14738;42.668;23.250;2023-07-31T13:32:54;11.43;;;6.00;;
5297;SDS011;14738;42.668;23.250;2023-07-31T13:35:20;6.13;;;5.70;;
5297;SDS011;14738;42.668;23.250;2023-07-31T13:37:45;6.10;;;5.70;;
5297;SDS011;14738;42.668;23.250;2023-07-31T13:40:11;5.57;;;5.07;;
5297;SDS011;14738;42.668;23.250;2023-07-31T13:42:36;6.07;;;5.50;;
5297;SDS011;14738;42.668;23.250;2023-07-31T13:45:02;6.60;;;5.73;;
5297;SDS011;14738;42.668;23.250;2023-07-31T13:47:27;6.00;;;5.57;;
5297;SDS011;14738;42.668;23.250;2023-07-31T13:49:53;6.37;;;5.43;;
5297;SDS011;14738;42.668;23.250;2023-07-31T13:52:18;5.60;;;5.30;;
5297;SDS011;14738;42.668;23.250;2023-07-31T13:54:44;5.13;;;4.73;;
5297;SDS011;14738;42.668;23.250;2023-07-31T13:57:09;5.70;;;5.13;;
5297;SDS011;14738;42.668;23.250;2023-07-31T13:59:35;5.93;;;5.43;;
5297;SDS011;14738;42.668;23.250;2023-07-31T14:02:01;6.00;;;5.60;;
5297;SDS011;14738;42.668;23.250;2023-07-31T14:04:27;5.80;;;5.40;;
5297;SDS011;14738;42.668;23.250;2023-07-31T14:06:53;6.13;;;5.07;;
5297;SDS011;14738;42.668;23.250;2023-07-31T14:09:18;5.27;;;4.97;;
5297;SDS011;14738;42.668;23.250;2023-07-31T14:11:44;6.00;;;5.60;;
5297;SDS011;14738;42.668;23.250;2023-07-31T14:14:09;5.40;;;5.10;;
5297;SDS011;14738;42.668;23.250;2023-07-31T14:16:35;4.53;;;4.33;;
5297;SDS011;14738;42.668;23.250;2023-07-31T14:19:00;5.40;;;5.00;;
5297;SDS011;14738;42.668;23.250;2023-07-31T14:21:26;5.87;;;5.37;;
5297;SDS011;14738;42.668;23.250;2023-07-31T14:23:51;5.10;;;4.80;;
5297;SDS011;14738;42.668;23.250;2023-07-31T14:26:17;5.47;;;5.00;;
5297;SDS011;14738;42.668;23.250;2023-07-31T14:28:42;5.23;;;4.87;;
5297;SDS011;14738;42.668;23.250;2023-07-31T14:31:08;4.47;;;4.20;;
5297;SDS011;14738;42.668;23.250;2023-07-31T14:33:33;4.77;;;4.47;;
5297;SDS011;14738;42.668;23.250;2023-07-31T14:35:59;6.43;;;5.00;;
5297;SDS011;14738;42.668;23.250;2023-07-31T14:38:24;5.20;;;4.80;;
5297;SDS011;14738;42.668;23.250;2023-07-31T14:40:50;5.50;;;4.80;;
5297;SDS011;14738;42.668;23.250;2023-07-31T14:43:16;5.10;;;4.60;;
5297;SDS011;14738;42.668;23.250;2023-07-31T14:45:41;5.90;;;5.30;;
5297;SDS011;14738;42.668;23.250;2023-07-31T14:48:07;8.83;;;5.37;;
5297;SDS011;14738;42.668;23.250;2023-07-31T14:50:32;7.60;;;6.17;;
5297;SDS011;14738;42.668;23.250;2023-07-31T14:52:58;5.60;;;5.20;;